Time;durP1;ratioP1;P1;durP2;ratioP2;P2;SDS_P1;SDS_P2;PMS_P1;PMS_P2;Temp;Humidity;BMP_temperature;BMP_pressure;BME280_temperature;BME280_humidity;BME280_pressure;Samples;Min_cycle;Max_cycle;Signal;HPM_P1;HPM_P2
2021/11/20 00:00:14;;;;;;;31.58;8.85;;;7.30;99.90;;;;;;5096773;28;20079;-72
2021/11/20 00:02:42;;;;;;;28.63;9.15;;;7.20;99.90;;;;;;5100619;28;20461;-72
2021/11/20 00:05:11;;;;;;;26.98;8.73;;;7.20;99.90;;;;;;5070369;28;20061;-72
2021/11/20 00:07:38;;;;;;;34.80;8.82;;;7.20;99.90;;;;;;5072683;28;20056;-72
2021/11/20 00:10:09;;;;;;;28.08;8.75;;;7.30;99.90;;;;;;5068132;28;20056;-71
2021/11/20 00:12:38;;;;;;;35.83;9.32;;;7.30;99.90;;;;;;5060882;28;20105;-72
2021/11/20 00:15:06;;;;;;;30.33;9.35;;;7.20;99.90;;;;;;5054777;28;20928;-72
2021/11/20 00:17:33;;;;;;;33.10;8.45;;;7.20;99.90;;;;;;5072612;28;20056;-72
2021/11/20 00:20:00;;;;;;;35.50;10.10;;;7.20;99.90;;;;;;5052255;28;20048;-72
2021/11/20 00:22:32;;;;;;;34.53;10.40;;;7.10;99.90;;;;;;5062014;28;20044;-72
2021/11/20 00:25:04;;;;;;;29.77;9.88;;;6.80;99.90;;;;;;5071297;28;20041;-72
2021/11/20 00:27:34;;;;;;;24.42;9.88;;;6.60;99.90;;;;;;5063992;28;20099;-72
2021/11/20 00:32:47;;;;;;;34.22;10.90;;;6.30;99.90;;;;;;5066233;28;20535;-71
2021/11/20 00:35:18;;;;;;;31.25;10.90;;;6.20;99.90;;;;;;5058872;28;20078;-72
2021/11/20 00:37:46;;;;;;;33.55;9.90;;;6.20;99.90;;;;;;5072417;28;20053;-72
2021/11/20 00:40:27;;;;;;;29.95;11.07;;;6.20;99.90;;;;;;5052109;28;20069;-72
2021/11/20 00:42:54;;;;;;;37.47;10.50;;;6.20;99.90;;;;;;5072203;28;20049;-72
2021/11/20 00:45:21;;;;;;;41.40;12.52;;;6.30;99.90;;;;;;5060100;28;20667;-72
2021/11/20 00:47:48;;;;;;;29.95;11.30;;;6.50;99.90;;;;;;5060789;28;20052;-72
2021/11/20 00:50:18;;;;;;;32.15;11.35;;;6.60;99.90;;;;;;5067405;28;20048;-72
2021/11/20 00:52:46;;;;;;;39.60;12.95;;;6.50;99.90;;;;;;5049989;28;20122;-72
2021/11/20 00:55:17;;;;;;;33.55;11.90;;;6.40;99.90;;;;;;5053050;28;20056;-72
2021/11/20 00:57:44;;;;;;;31.95;10.40;;;6.30;99.90;;;;;;5063912;28;20125;-72
2021/11/20 01:03:37;;;;;;;22.67;9.65;;;6.30;99.90;;;;;;5171116;27;20768;-72
2021/11/20 01:06:04;;;;;;;38.35;12.23;;;6.40;99.90;;;;;;5144381;27;20080;-72
2021/11/20 01:08:35;;;;;;;41.25;11.90;;;6.40;99.90;;;;;;5145934;27;20456;-72
2021/11/20 01:11:12;;;;;;;49.95;13.07;;;6.50;99.90;;;;;;5156553;27;20074;-72
2021/11/20 01:13:39;;;;;;;43.47;13.07;;;6.50;99.90;;;;;;5146349;27;20051;-72
2021/11/20 01:16:09;;;;;;;43.22;15.82;;;6.70;99.90;;;;;;5151531;27;20051;-72
2021/11/20 01:18:36;;;;;;;54.33;15.15;;;6.70;99.90;;;;;;5161680;27;20106;-72
2021/11/20 01:21:03;;;;;;;50.88;14.27;;;6.70;99.90;;;;;;5151610;27;20106;-71
2021/11/20 01:23:32;;;;;;;48.90;14.65;;;6.80;99.90;;;;;;5151377;27;20146;-72
2021/11/20 01:25:59;;;;;;;52.22;16.65;;;6.80;99.90;;;;;;5144378;27;20497;-71
2021/11/20 01:28:33;;;;;;;62.67;20.55;;;6.80;99.90;;;;;;5146451;27;20104;-72
2021/11/20 01:31:00;;;;;;;59.05;22.20;;;6.80;99.90;;;;;;5151032;27;20042;-72
2021/11/20 01:33:27;;;;;;;44.88;15.38;;;6.70;99.90;;;;;;5169873;27;20051;-72
2021/11/20 01:35:54;;;;;;;42.50;13.48;;;6.80;99.90;;;;;;5147582;27;20043;-71
2021/11/20 01:38:22;;;;;;;32.58;12.77;;;6.70;99.90;;;;;;5150726;27;20620;-72
2021/11/20 01:40:51;;;;;;;31.52;10.85;;;6.80;99.90;;;;;;5163838;27;20637;-72
2021/11/20 01:43:18;;;;;;;37.53;11.40;;;6.80;99.90;;;;;;5166426;27;20095;-72
2021/11/20 01:46:06;;;;;;;44.28;12.02;;;6.80;99.90;;;;;;5160316;27;20047;-72
2021/11/20 01:49:02;;;;;;;42.17;11.77;;;6.70;99.90;;;;;;5149248;27;20133;-72
2021/11/20 01:51:37;;;;;;;39.63;10.95;;;6.80;99.90;;;;;;5136383;27;20051;-72
2021/11/20 01:54:31;;;;;;;30.15;10.77;;;6.90;99.90;;;;;;5160157;27;20091;-72
2021/11/20 01:57:21;;;;;;;31.27;10.60;;;6.90;99.90;;;;;;5166175;27;20103;-72
2021/11/20 02:00:04;;;;;;;30.88;10.02;;;6.90;99.90;;;;;;5144244;27;20046;-72
2021/11/20 02:02:56;;;;;;;23.05;9.82;;;6.80;99.90;;;;;;5144484;27;20093;-72
2021/11/20 02:05:34;;;;;;;23.50;9.70;;;6.80;99.90;;;;;;5146929;27;20463;-72
2021/11/20 02:08:14;;;;;;;23.73;9.15;;;6.70;99.90;;;;;;5144926;27;20111;-72
2021/11/20 02:10:48;;;;;;;26.40;10.32;;;6.40;99.90;;;;;;5145796;27;20103;-72
2021/11/20 02:13:22;;;;;;;32.80;9.82;;;6.30;99.90;;;;;;5144095;27;20047;-71
2021/11/20 02:16:12;;;;;;;17.45;9.38;;;6.20;99.90;;;;;;5131085;27;20051;-72
2021/11/20 02:18:45;;;;;;;20.63;9.48;;;6.10;99.90;;;;;;5112405;27;20048;-72
2021/11/20 02:21:22;;;;;;;28.30;11.57;;;6.10;99.90;;;;;;5128768;27;20502;-72
2021/11/20 02:23:48;;;;;;;;;;;6.10;99.90;;;;;;5124055;27;20044;-72
2021/11/20 02:26:16;;;;;;;22.75;11.40;;;6.00;99.90;;;;;;5130993;27;20344;-71
2021/11/20 02:28:43;;;;;;;23.25;10.20;;;6.00;99.90;;;;;;5128335;27;20135;-72
2021/11/20 02:31:11;;;;;;;28.20;12.50;;;5.90;99.90;;;;;;5129668;27;20056;-72
2021/11/20 02:33:40;;;;;;;28.20;11.38;;;5.90;99.90;;;;;;5125745;27;20055;-71
2021/11/20 02:36:11;;;;;;;24.05;12.13;;;5.80;99.90;;;;;;5126262;27;20096;-71
2021/11/20 02:38:56;;;;;;;26.30;11.07;;;5.70;99.90;;;;;;5132895;27;20047;-71
2021/11/20 02:41:26;;;;;;;20.20;10.45;;;5.60;99.90;;;;;;5125552;27;20486;-72
2021/11/20 02:43:54;;;;;;;19.77;10.00;;;5.20;99.90;;;;;;5123483;27;20039;-72
2021/11/20 02:46:24;;;;;;;22.35;10.45;;;5.00;99.90;;;;;;5131970;27;20121;-72
2021/11/20 02:48:52;;;;;;;20.63;9.93;;;4.90;99.90;;;;;;5126977;27;20050;-71
2021/11/20 02:51:26;;;;;;;14.93;9.45;;;4.80;99.90;;;;;;5128932;27;20092;-72
2021/11/20 02:54:11;;;;;;;23.95;10.18;;;4.80;99.90;;;;;;5130787;27;20490;-72
2021/11/20 02:56:53;;;;;;;31.05;12.35;;;4.80;99.90;;;;;;5126580;27;20104;-72
2021/11/20 02:59:20;;;;;;;29.77;12.63;;;4.80;99.90;;;;;;5129746;27;20886;-71
2021/11/20 03:03:31;;;;;;;63.47;37.75;;;5.00;99.90;;;;;;5179707;27;20114;-71
2021/11/20 03:05:58;;;;;;;26.17;13.50;;;5.00;99.90;;;;;;5148246;27;20607;-71
2021/11/20 03:08:25;;;;;;;32.92;14.00;;;5.00;99.90;;;;;;5168803;27;20561;-71
2021/11/20 03:10:52;;;;;;;32.10;13.68;;;5.00;99.90;;;;;;5149900;27;20091;-71
2021/11/20 03:13:19;;;;;;;36.65;14.63;;;5.10;99.90;;;;;;5144458;27;20119;-72
2021/11/20 03:15:46;;;;;;;34.47;14.23;;;5.10;99.90;;;;;;5150838;27;20462;-72
2021/11/20 03:18:13;;;;;;;59.83;15.40;;;5.10;99.90;;;;;;5158667;27;20072;-71
2021/11/20 03:20:41;;;;;;;41.15;16.65;;;5.10;99.90;;;;;;5148560;27;20517;-72
2021/11/20 03:23:31;;;;;;;31.35;14.35;;;5.20;99.90;;;;;;5145166;27;20051;-72
2021/11/20 03:25:58;;;;;;;53.22;16.30;;;5.30;99.90;;;;;;5148442;27;20042;-71
2021/11/20 03:28:25;;;;;;;46.90;16.65;;;5.30;99.90;;;;;;5151228;27;20042;-71
2021/11/20 03:30:52;;;;;;;54.08;16.65;;;5.30;99.90;;;;;;5147287;27;20103;-72
2021/11/20 03:33:19;;;;;;;51.35;16.80;;;5.30;99.90;;;;;;5147577;27;20103;-72
2021/11/20 03:35:46;;;;;;;39.90;15.80;;;5.30;99.90;;;;;;5150519;27;20534;-72
2021/11/20 03:38:14;;;;;;;52.10;15.52;;;5.40;99.90;;;;;;5150405;27;20039;-72
2021/11/20 03:40:42;;;;;;;33.88;14.43;;;5.40;99.90;;;;;;5148515;27;20042;-71
2021/11/20 03:43:10;;;;;;;45.97;15.63;;;5.40;99.90;;;;;;5150024;27;20435;-72
2021/11/20 03:45:38;;;;;;;33.05;15.88;;;5.40;99.90;;;;;;5169426;27;20051;-72
2021/11/20 03:48:06;;;;;;;39.88;15.60;;;5.50;99.90;;;;;;5150860;27;20087;-72
2021/11/20 03:50:34;;;;;;;33.75;15.02;;;5.50;99.90;;;;;;5159094;27;20047;-72
2021/11/20 03:53:01;;;;;;;29.77;15.00;;;5.50;99.90;;;;;;5166652;27;20079;-72
2021/11/20 03:55:32;;;;;;;30.20;16.05;;;5.60;99.90;;;;;;5150346;27;20080;-72
2021/11/20 03:57:59;;;;;;;40.42;16.80;;;5.60;99.90;;;;;;5147164;27;20065;-72
2021/11/20 04:00:30;;;;;;;48.20;16.45;;;5.70;99.90;;;;;;5151012;27;20046;-72
2021/11/20 04:02:57;;;;;;;44.35;15.60;;;5.70;99.90;;;;;;5146789;27;20043;-72
2021/11/20 04:05:25;;;;;;;36.58;15.55;;;5.80;99.90;;;;;;5167383;27;20550;-72
2021/11/20 04:07:52;;;;;;;32.35;15.55;;;5.80;99.90;;;;;;5149092;27;20514;-72
2021/11/20 04:10:23;;;;;;;35.80;15.73;;;5.80;99.90;;;;;;5149225;27;20091;-72
2021/11/20 04:12:50;;;;;;;38.42;17.63;;;5.70;99.90;;;;;;5146629;27;20094;-72
2021/11/20 04:15:22;;;;;;;43.42;18.58;;;5.80;99.90;;;;;;5136044;27;20446;-72
2021/11/20 04:17:50;;;;;;;44.63;17.35;;;5.80;99.90;;;;;;5132745;27;20382;-72
2021/11/20 04:20:20;;;;;;;34.65;16.95;;;5.80;99.90;;;;;;5132451;27;20043;-72
2021/11/20 04:22:48;;;;;;;34.92;15.93;;;5.80;99.90;;;;;;5134910;27;20046;-72
2021/11/20 04:25:18;;;;;;;41.97;17.35;;;5.80;99.90;;;;;;5135696;27;20053;-72
2021/11/20 04:27:45;;;;;;;62.10;18.80;;;5.80;99.90;;;;;;5154879;27;20106;-72
2021/11/20 04:30:14;;;;;;;34.85;17.88;;;5.90;99.90;;;;;;5132152;27;20099;-73
2021/11/20 04:32:42;;;;;;;53.70;20.88;;;6.00;99.90;;;;;;5134699;27;20043;-72
2021/11/20 04:35:10;;;;;;;52.55;20.77;;;6.00;99.90;;;;;;5135992;27;20046;-72
2021/11/20 04:37:38;;;;;;;43.17;17.45;;;6.00;99.90;;;;;;5142194;27;20502;-72
2021/11/20 04:40:06;;;;;;;38.05;17.42;;;6.00;99.90;;;;;;5154429;27;20104;-72
2021/11/20 04:42:34;;;;;;;42.53;17.80;;;6.00;99.90;;;;;;5132883;27;20039;-72
2021/11/20 04:45:01;;;;;;;42.65;16.25;;;6.10;99.90;;;;;;5136137;27;20046;-72
2021/11/20 04:47:28;;;;;;;39.28;17.77;;;6.10;99.90;;;;;;5134034;27;20072;-72
2021/11/20 04:49:55;;;;;;;33.45;16.73;;;6.00;99.90;;;;;;5131522;27;20161;-72
2021/11/20 04:52:22;;;;;;;30.90;15.07;;;6.10;99.90;;;;;;5154802;27;20125;-71
2021/11/20 04:54:49;;;;;;;42.10;16.73;;;6.10;99.90;;;;;;5144982;27;20051;-72
2021/11/20 04:57:29;;;;;;;45.30;16.90;;;6.10;99.90;;;;;;5151015;27;20151;-72
2021/11/20 04:59:56;;;;;;;39.83;16.52;;;6.10;99.90;;;;;;5133044;27;20050;-72
2021/11/20 05:03:26;;;;;;;51.67;17.30;;;6.10;99.90;;;;;;5184745;27;20495;-72
2021/11/20 05:05:55;;;;;;;48.55;17.50;;;6.20;99.90;;;;;;5164864;27;20046;-72
2021/11/20 05:08:23;;;;;;;43.45;16.58;;;6.20;99.90;;;;;;5142815;27;20058;-72
2021/11/20 05:10:52;;;;;;;36.88;16.63;;;6.20;99.90;;;;;;5144077;27;20091;-72
2021/11/20 05:13:22;;;;;;;39.85;17.17;;;6.20;99.90;;;;;;5142117;27;20103;-72
2021/11/20 05:15:50;;;;;;;41.25;17.63;;;6.20;99.90;;;;;;5141117;27;20094;-71
2021/11/20 05:18:17;;;;;;;50.80;17.42;;;6.30;99.90;;;;;;5140623;27;20073;-72
2021/11/20 05:20:46;;;;;;;48.20;17.98;;;6.30;99.90;;;;;;5141819;27;20094;-71
2021/11/20 05:23:14;;;;;;;58.78;17.85;;;6.30;99.90;;;;;;5145281;27;20119;-72
2021/11/20 05:25:42;;;;;;;41.72;16.77;;;6.30;99.90;;;;;;5135980;27;20068;-72
2021/11/20 05:28:09;;;;;;;42.55;16.67;;;6.30;99.90;;;;;;5146249;27;20047;-72
2021/11/20 05:30:39;;;;;;;39.65;16.63;;;6.30;99.90;;;;;;5145108;27;20367;-72
2021/11/20 05:33:41;;;;;;;50.53;17.55;;;6.30;99.90;;;;;;5169474;27;20042;-72
2021/11/20 05:36:11;;;;;;;49.97;16.08;;;6.30;99.90;;;;;;5157986;27;20061;-72
2021/11/20 05:38:38;;;;;;;45.28;16.80;;;6.40;99.90;;;;;;5147134;27;20076;-72
2021/11/20 05:41:05;;;;;;;40.20;16.77;;;6.40;99.90;;;;;;5143173;27;20058;-72
2021/11/20 05:43:32;;;;;;;49.53;15.90;;;6.40;99.90;;;;;;5156405;27;20131;-72
2021/11/20 05:46:06;;;;;;;49.67;16.27;;;6.40;99.90;;;;;;5142459;27;20575;-72
2021/11/20 05:48:33;;;;;;;44.38;17.67;;;6.40;99.90;;;;;;5151446;27;20043;-72
2021/11/20 05:51:00;;;;;;;47.92;16.77;;;6.40;99.90;;;;;;5147121;27;20035;-72
2021/11/20 05:53:27;;;;;;;54.90;18.00;;;6.40;99.90;;;;;;5146228;27;20099;-72
2021/11/20 05:55:56;;;;;;;35.90;17.77;;;6.40;99.90;;;;;;5144979;27;20055;-72
2021/11/20 05:58:23;;;;;;;50.30;17.77;;;6.40;99.90;;;;;;5156765;27;20513;-72
2021/11/20 06:00:53;;;;;;;37.63;16.25;;;6.40;99.90;;;;;;5143221;27;20051;-72
2021/11/20 06:03:21;;;;;;;47.33;18.23;;;6.50;99.90;;;;;;5147286;27;20085;-72
2021/11/20 06:05:50;;;;;;;46.45;16.85;;;6.50;99.90;;;;;;5153033;27;20103;-72
2021/11/20 06:08:19;;;;;;;45.05;18.20;;;6.50;99.90;;;;;;5138858;27;20050;-72
2021/11/20 06:10:47;;;;;;;42.80;17.10;;;6.50;99.90;;;;;;5163898;27;20087;-72
2021/11/20 06:13:15;;;;;;;36.17;17.27;;;6.50;99.90;;;;;;5138195;27;20046;-72
2021/11/20 06:15:43;;;;;;;40.13;17.90;;;6.50;99.90;;;;;;5131240;27;20042;-72
2021/11/20 06:18:12;;;;;;;45.10;18.33;;;6.50;99.90;;;;;;5130533;27;20043;-72
2021/11/20 06:20:42;;;;;;;41.28;16.75;;;6.50;99.90;;;;;;5126458;27;20090;-72
2021/11/20 06:23:25;;;;;;;35.92;16.83;;;6.50;99.90;;;;;;5136846;27;20047;-73
2021/11/20 06:25:53;;;;;;;37.70;16.70;;;6.50;99.90;;;;;;5136628;27;20042;-72
2021/11/20 06:28:20;;;;;;;36.60;18.02;;;6.50;99.90;;;;;;5127908;27;20046;-72
2021/11/20 06:30:47;;;;;;;45.50;17.20;;;6.50;99.90;;;;;;5153588;27;20039;-72
2021/11/20 06:33:14;;;;;;;46.08;17.75;;;6.50;99.90;;;;;;5126648;27;20104;-72
2021/11/20 06:35:41;;;;;;;41.10;18.38;;;6.60;99.90;;;;;;5128196;27;20055;-72
2021/11/20 06:38:09;;;;;;;40.45;17.58;;;6.60;99.90;;;;;;5132032;27;20171;-72
2021/11/20 06:40:40;;;;;;;38.70;16.75;;;6.60;99.90;;;;;;5151025;27;20042;-72
2021/11/20 06:43:11;;;;;;;41.10;17.48;;;6.60;99.90;;;;;;5148974;27;20043;-72
2021/11/20 06:45:41;;;;;;;38.67;18.00;;;6.60;99.90;;;;;;5133771;27;20697;-72
2021/11/20 06:48:10;;;;;;;45.40;18.73;;;6.60;99.90;;;;;;5100471;27;20047;-72
2021/11/20 06:50:42;;;;;;;44.22;17.73;;;6.60;99.90;;;;;;5080189;28;20106;-71
2021/11/20 06:53:12;;;;;;;45.55;19.17;;;6.60;99.90;;;;;;5067913;28;20045;-72
2021/11/20 06:55:40;;;;;;;45.42;19.67;;;6.70;99.90;;;;;;5067422;28;20053;-72
2021/11/20 06:59:07;;;;;;;48.13;20.58;;;6.70;99.90;;;;;;5065578;28;20049;-72
2021/11/20 07:03:19;;;;;;;45.40;18.88;;;6.60;99.90;;;;;;5164789;27;20582;-72
2021/11/20 07:05:53;;;;;;;58.72;20.60;;;6.60;99.90;;;;;;5135861;27;20725;-72
2021/11/20 07:08:22;;;;;;;46.42;19.27;;;6.70;99.90;;;;;;5125961;27;20468;-72
2021/11/20 07:10:51;;;;;;;41.63;18.88;;;6.70;99.90;;;;;;5125397;27;20039;-72
2021/11/20 07:13:21;;;;;;;41.45;19.20;;;6.70;99.90;;;;;;5124790;27;20058;-73
2021/11/20 07:15:49;;;;;;;48.53;18.58;;;6.70;99.90;;;;;;5124579;27;20047;-72
2021/11/20 07:18:17;;;;;;;45.00;19.70;;;6.70;99.90;;;;;;5143318;27;20048;-71
2021/11/20 07:20:44;;;;;;;50.83;19.77;;;6.70;99.90;;;;;;5125084;27;20055;-72
2021/11/20 07:23:12;;;;;;;46.83;19.15;;;6.70;99.90;;;;;;5142173;27;20529;-72
2021/11/20 07:25:39;;;;;;;51.53;19.83;;;6.80;99.90;;;;;;5137590;27;20112;-72
2021/11/20 07:28:07;;;;;;;52.40;20.52;;;6.80;99.90;;;;;;5119018;27;20371;-72
2021/11/20 07:30:38;;;;;;;42.13;19.90;;;6.80;99.90;;;;;;5122792;27;20132;-72
2021/11/20 07:33:06;;;;;;;50.80;19.27;;;6.80;99.90;;;;;;5126838;27;20044;-72
2021/11/20 07:35:45;;;;;;;48.55;19.23;;;6.80;99.90;;;;;;5122537;27;20047;-72
2021/11/20 07:38:16;;;;;;;54.60;20.88;;;6.80;99.90;;;;;;5131519;27;20047;-72
2021/11/20 07:40:44;;;;;;;66.65;25.00;;;6.90;99.90;;;;;;5147641;27;20039;-71
2021/11/20 07:43:12;;;;;;;65.43;24.23;;;6.90;99.90;;;;;;5130278;27;20051;-72
2021/11/20 07:45:40;;;;;;;56.85;22.27;;;6.90;99.90;;;;;;5142339;27;20035;-72
2021/11/20 07:48:17;;;;;;;65.38;22.48;;;7.00;99.90;;;;;;5145909;27;20096;-72
2021/11/20 07:50:45;;;;;;;;;;;7.00;99.90;;;;;;5136017;27;20051;-72
2021/11/20 07:53:13;;;;;;;59.42;22.58;;;6.90;99.90;;;;;;5145709;27;19919;-72
2021/11/20 07:55:40;;;;;;;55.60;21.92;;;7.00;99.90;;;;;;5129854;27;20773;-72
2021/11/20 07:58:07;;;;;;;54.45;22.60;;;7.00;99.90;;;;;;5130008;27;20042;-72
2021/11/20 08:00:37;;;;;;;46.97;20.73;;;7.00;99.90;;;;;;5145066;27;20096;-72
2021/11/20 08:03:06;;;;;;;57.83;23.30;;;7.00;99.90;;;;;;5124857;27;20108;-71
2021/11/20 08:05:33;;;;;;;58.28;21.77;;;7.10;99.90;;;;;;5126235;28;20039;-71
2021/11/20 08:08:00;;;;;;;51.22;20.40;;;7.10;99.90;;;;;;5124443;28;20719;-71
2021/11/20 08:10:29;;;;;;;49.35;20.48;;;7.10;99.90;;;;;;5124904;28;20509;-72
2021/11/20 08:12:57;;;;;;;60.47;23.67;;;7.10;99.90;;;;;;5121641;28;20051;-72
2021/11/20 08:15:25;;;;;;;66.18;22.92;;;7.10;99.90;;;;;;5113990;28;20074;-72
2021/11/20 08:17:52;;;;;;;52.33;21.67;;;7.10;99.90;;;;;;5112511;28;20097;-72
2021/11/20 08:20:23;;;;;;;63.65;22.60;;;7.10;99.90;;;;;;5110522;28;20506;-72
2021/11/20 08:22:50;;;;;;;70.20;23.85;;;7.10;99.90;;;;;;5110810;28;20044;-72
2021/11/20 08:25:23;;;;;;;65.57;24.80;;;7.20;99.90;;;;;;5112732;28;20452;-72
2021/11/20 08:27:50;;;;;;;66.60;24.98;;;7.20;99.90;;;;;;5104499;28;20403;-72
2021/11/20 08:30:22;;;;;;;71.35;24.40;;;7.20;99.90;;;;;;5112277;28;20062;-72
2021/11/20 08:32:50;;;;;;;65.03;24.25;;;7.20;99.90;;;;;;5100781;28;20568;-72
2021/11/20 08:35:18;;;;;;;62.42;23.75;;;7.30;99.90;;;;;;5108047;28;20040;-72
2021/11/20 08:37:45;;;;;;;58.13;23.35;;;7.30;99.90;;;;;;5111447;28;20055;-72
2021/11/20 08:40:15;;;;;;;59.90;22.80;;;7.30;99.90;;;;;;5106008;28;20048;-72
2021/11/20 08:42:42;;;;;;;64.38;24.00;;;7.30;99.90;;;;;;5111395;28;20068;-72
2021/11/20 08:45:13;;;;;;;51.08;22.40;;;7.30;99.90;;;;;;5111721;28;20067;-71
2021/11/20 08:47:40;;;;;;;45.25;20.85;;;7.40;99.90;;;;;;5111346;28;20043;-72
2021/11/20 08:50:10;;;;;;;48.85;21.15;;;7.30;99.90;;;;;;5105653;28;20123;-73
2021/11/20 08:52:38;;;;;;;57.72;24.02;;;7.40;99.90;;;;;;5110840;28;20043;-72
2021/11/20 08:55:05;;;;;;;40.70;19.25;;;7.40;99.90;;;;;;5109185;28;20908;-72
2021/11/20 08:57:32;;;;;;;43.67;19.92;;;7.40;99.90;;;;;;5109524;28;20439;-72
2021/11/20 09:03:45;;;;;;;52.17;23.23;;;7.50;99.90;;;;;;5162950;27;20506;-72
2021/11/20 09:06:15;;;;;;;48.13;21.77;;;7.50;99.90;;;;;;5134816;27;20049;-72
2021/11/20 09:09:15;;;;;;;38.40;20.17;;;7.40;99.90;;;;;;5142777;27;20103;-72
2021/11/20 09:12:04;;;;;;;42.00;18.25;;;7.40;99.90;;;;;;5152406;27;20137;-72
2021/11/20 09:14:36;;;;;;;45.65;21.77;;;7.40;99.90;;;;;;5143474;27;20095;-71
2021/11/20 09:17:04;;;;;;;37.17;18.33;;;7.40;99.90;;;;;;5136189;27;20047;-72
2021/11/20 09:19:34;;;;;;;64.97;27.88;;;7.40;99.90;;;;;;5130303;27;20062;-72
2021/11/20 09:22:03;;;;;;;30.40;16.60;;;7.40;99.90;;;;;;5138162;27;20035;-72
2021/11/20 09:24:34;;;;;;;29.30;15.35;;;7.40;99.90;;;;;;5142753;27;20039;-72
2021/11/20 09:27:22;;;;;;;35.65;17.42;;;7.30;99.90;;;;;;5146557;27;20587;-72
2021/11/20 09:29:49;;;;;;;29.35;14.48;;;7.20;99.90;;;;;;5136340;27;20059;-72
2021/11/20 09:32:17;;;;;;;24.52;13.98;;;7.20;99.90;;;;;;5136563;27;20048;-72
2021/11/20 09:34:44;;;;;;;22.80;13.63;;;7.20;99.90;;;;;;5142719;27;20051;-72
2021/11/20 09:37:12;;;;;;;25.90;13.95;;;7.20;99.90;;;;;;5140581;27;20141;-72
2021/11/20 09:39:40;;;;;;;20.25;12.57;;;7.10;99.90;;;;;;5140529;27;20104;-72
2021/11/20 09:42:26;;;;;;;22.70;13.32;;;7.00;99.90;;;;;;5137409;27;20088;-72
2021/11/20 09:44:58;;;;;;;29.53;13.40;;;7.10;99.90;;;;;;5142396;27;20043;-72
2021/11/20 09:47:29;;;;;;;25.27;13.57;;;7.10;99.90;;;;;;5140064;27;20121;-72
2021/11/20 09:50:18;;;;;;;35.13;18.40;;;7.10;99.90;;;;;;5152922;27;20489;-72
2021/11/20 09:52:48;;;;;;;26.55;15.95;;;7.10;99.90;;;;;;5155438;27;20107;-72
2021/11/20 09:55:21;;;;;;;22.30;11.63;;;7.10;99.90;;;;;;5142674;27;20039;-72
2021/11/20 09:58:02;;;;;;;20.25;12.77;;;7.00;99.90;;;;;;5132552;27;20099;-72
2021/11/20 10:01:26;;;;;;;23.60;13.25;;;7.10;99.90;;;;;;5135092;27;20042;-72
2021/11/20 10:04:02;;;;;;;19.23;10.98;;;7.00;99.90;;;;;;5021412;28;20053;-72
2021/11/20 10:06:37;;;;;;;20.65;11.35;;;6.90;99.90;;;;;;5024098;28;20050;-71
2021/11/20 10:09:31;;;;;;;29.13;17.00;;;7.00;99.90;;;;;;5120227;27;20100;-71
2021/11/20 10:12:04;;;;;;;33.00;17.73;;;7.00;99.90;;;;;;5120758;27;20047;-72
2021/11/20 10:14:57;;;;;;;33.30;17.63;;;7.00;99.90;;;;;;5141151;27;20043;-72
2021/11/20 10:17:38;;;;;;;25.15;14.85;;;7.00;99.90;;;;;;5141457;27;20086;-72
2021/11/20 10:20:11;;;;;;;28.30;15.43;;;7.00;99.90;;;;;;5125466;27;20043;-72
2021/11/20 10:22:51;;;;;;;27.30;15.43;;;7.10;99.90;;;;;;5125776;27;20076;-72
2021/11/20 10:25:56;;;;;;;28.83;16.02;;;7.20;99.90;;;;;;5124780;27;20091;-72
2021/11/20 10:28:29;;;;;;;26.10;14.10;;;7.20;99.90;;;;;;5131670;27;20625;-72
2021/11/20 10:31:24;;;;;;;22.30;13.63;;;7.30;99.90;;;;;;5127232;27;20108;-72
2021/11/20 10:34:06;;;;;;;26.95;13.50;;;7.40;99.90;;;;;;5117533;27;20047;-73
2021/11/20 10:36:54;;;;;;;26.08;14.63;;;7.40;99.90;;;;;;5136416;27;20099;-72
2021/11/20 10:39:39;;;;;;;32.30;16.55;;;7.40;99.90;;;;;;5128756;27;20047;-72
2021/11/20 10:42:17;;;;;;;28.20;16.35;;;7.50;99.90;;;;;;5141217;27;20046;-72
2021/11/20 10:44:48;;;;;;;26.75;15.77;;;7.50;99.90;;;;;;5121453;27;20103;-72
2021/11/20 10:47:18;;;;;;;27.55;14.98;;;7.60;99.90;;;;;;5125542;27;20067;-72
2021/11/20 10:50:23;;;;;;;26.80;14.10;;;7.60;99.90;;;;;;5125544;27;20054;-72
2021/11/20 10:53:31;;;;;;;23.05;12.80;;;7.60;99.90;;;;;;5120908;27;20110;-72
2021/11/20 10:56:19;;;;;;;23.33;12.82;;;7.60;99.90;;;;;;5124843;27;20104;-72
2021/11/20 11:03:38;;;;;;;22.88;12.45;;;7.70;99.90;;;;;;5137494;27;20192;-72
2021/11/20 11:06:40;;;;;;;26.00;14.68;;;7.80;99.90;;;;;;5114153;27;20088;-72
2021/11/20 11:09:16;;;;;;;27.80;13.98;;;7.90;99.90;;;;;;5115613;27;20050;-72
2021/11/20 11:12:12;;;;;;;26.30;14.57;;;7.80;99.90;;;;;;5127877;27;20127;-72
2021/11/20 11:15:07;;;;;;;18.83;11.50;;;7.80;99.90;;;;;;5119744;27;20048;-72
2021/11/20 11:17:59;;;;;;;21.65;12.05;;;7.90;99.90;;;;;;5118619;27;20082;-71
2021/11/20 11:20:56;;;;;;;20.33;12.60;;;8.00;99.90;;;;;;5115500;28;20097;-72
2021/11/20 11:23:36;;;;;;;26.63;14.20;;;8.00;99.90;;;;;;5130313;27;20062;-72
2021/11/20 11:26:08;;;;;;;22.85;13.40;;;8.00;99.90;;;;;;5115271;28;20403;-72
2021/11/20 11:29:22;;;;;;;24.77;14.10;;;8.10;99.90;;;;;;5116210;28;20085;-71
2021/11/20 11:31:51;;;;;;;26.80;14.15;;;8.10;99.90;;;;;;5065700;27;20044;-72
2021/11/20 11:34:30;;;;;;;27.77;15.05;;;7.90;99.90;;;;;;5128042;27;20051;-71
2021/11/20 11:37:15;;;;;;;34.50;17.65;;;7.90;99.90;;;;;;5132433;27;20494;-73
2021/11/20 11:40:16;;;;;;;33.88;17.30;;;7.90;99.90;;;;;;5113323;28;20089;-72
2021/11/20 11:42:56;;;;;;;31.15;17.55;;;7.90;99.90;;;;;;5124863;27;20067;-72
2021/11/20 11:45:47;;;;;;;37.63;18.85;;;8.10;99.90;;;;;;5114711;27;20043;-72
2021/11/20 11:48:42;;;;;;;32.10;18.08;;;8.10;99.90;;;;;;5116457;28;20052;-73
2021/11/20 11:51:15;;;;;;;31.40;17.92;;;8.00;99.90;;;;;;5132380;27;20043;-72
2021/11/20 11:54:21;;;;;;;28.25;16.67;;;8.10;99.90;;;;;;5112948;28;20069;-72
2021/11/20 11:57:14;;;;;;;32.08;16.50;;;8.00;99.90;;;;;;5063273;28;20114;-72
2021/11/20 12:00:08;;;;;;;38.42;20.25;;;8.00;99.90;;;;;;5094631;28;21618;-72
2021/11/20 12:02:38;;;;;;;35.55;19.77;;;8.00;99.90;;;;;;5115111;28;20051;-72
2021/11/20 12:05:24;;;;;;;35.17;20.17;;;8.00;99.90;;;;;;5114863;28;20522;-72
2021/11/20 12:07:51;;;;;;;39.42;21.27;;;8.00;99.90;;;;;;5103369;28;20116;-73
2021/11/20 12:10:21;;;;;;;36.65;21.15;;;8.00;99.90;;;;;;5110225;28;20502;-72
2021/11/20 12:13:04;;;;;;;41.55;21.48;;;7.90;99.90;;;;;;5107293;28;20405;-72
2021/11/20 12:15:48;;;;;;;36.22;20.75;;;7.80;99.90;;;;;;5111689;27;20048;-72
2021/11/20 12:18:51;;;;;;;51.20;21.92;;;7.70;99.90;;;;;;5089166;28;20130;-72
2021/11/20 12:21:38;;;;;;;44.28;23.13;;;7.70;99.90;;;;;;5096981;28;20461;-72
2021/11/20 12:24:29;;;;;;;37.85;22.70;;;7.60;99.90;;;;;;5095383;28;20067;-71
2021/11/20 12:27:07;;;;;;;41.13;22.17;;;7.60;99.90;;;;;;5096641;28;20097;-72
2021/11/20 12:29:52;;;;;;;41.08;22.08;;;7.60;99.90;;;;;;5093815;28;20109;-72
2021/11/20 12:32:39;;;;;;;47.35;24.40;;;7.60;99.90;;;;;;5091226;28;20044;-72
2021/11/20 12:35:37;;;;;;;51.55;25.67;;;7.70;99.90;;;;;;5094418;28;20040;-72
2021/11/20 12:38:41;;;;;;;43.45;23.80;;;7.70;99.90;;;;;;5094733;28;20560;-72
2021/11/20 12:41:20;;;;;;;45.95;23.65;;;7.70;99.90;;;;;;5093231;28;20048;-72
2021/11/20 12:43:50;;;;;;;43.97;22.38;;;7.80;99.90;;;;;;5091536;28;20586;-72
2021/11/20 12:46:41;;;;;;;44.40;23.83;;;7.80;99.90;;;;;;5092007;28;20098;-72
2021/11/20 12:49:28;;;;;;;45.60;24.30;;;7.80;99.90;;;;;;5093100;28;20519;-72
2021/11/20 12:52:35;;;;;;;42.88;24.20;;;7.80;99.90;;;;;;5096710;28;20051;-71
2021/11/20 12:55:31;;;;;;;40.63;22.88;;;7.70;99.90;;;;;;5113815;27;20047;-71
2021/11/20 12:58:10;;;;;;;54.05;27.52;;;7.70;99.90;;;;;;5090667;28;20044;-73
2021/11/20 13:03:23;;;;;;;44.67;23.63;;;7.70;99.90;;;;;;5167964;27;20117;-72
2021/11/20 13:05:56;;;;;;;60.88;31.05;;;7.70;99.90;;;;;;5151547;27;20047;-72
2021/11/20 13:08:23;;;;;;;52.78;27.83;;;7.60;99.90;;;;;;5141658;27;20070;-72
2021/11/20 13:11:11;;;;;;;47.38;25.30;;;7.60;99.90;;;;;;5133493;27;20394;-72
2021/11/20 13:14:06;;;;;;;60.13;34.80;;;7.60;99.90;;;;;;5157738;27;20570;-71
2021/11/20 13:16:54;;;;;;;48.75;25.50;;;7.50;99.90;;;;;;5139375;27;20043;-72
2021/11/20 13:19:43;;;;;;;43.97;23.90;;;7.50;99.90;;;;;;5130549;27;20505;-72
2021/11/20 13:22:35;;;;;;;49.08;26.98;;;7.50;99.90;;;;;;5151993;27;20051;-72
2021/11/20 13:25:15;;;;;;;46.50;24.10;;;7.50;99.90;;;;;;5156511;27;20043;-71
2021/11/20 13:27:42;;;;;;;43.45;24.65;;;7.50;99.90;;;;;;5133313;27;20047;-72
2021/11/20 13:30:12;;;;;;;41.35;23.08;;;7.50;99.90;;;;;;5141862;27;20070;-72
2021/11/20 13:32:47;;;;;;;42.28;22.73;;;7.50;99.90;;;;;;5127991;27;20598;-72
2021/11/20 13:35:17;;;;;;;43.35;23.98;;;7.50;99.90;;;;;;5135232;27;20046;-72